Time;durP1;ratioP1;P1;durP2;ratioP2;P2;SDS_P1;SDS_P2;PMS_P1;PMS_P2;Temp;Humidity;BMP_temperature;BMP_pressure;BME280_temperature;BME280_humidity;BME280_pressure;Samples;Min_cycle;Max_cycle;Signal;HPM_P1;HPM_P2
2022/12/09 00:00:21;;;;;;;18.13;10.97;;;;;;;1.30;93.89;100589.31;5017940;28;20029;-78
2022/12/09 00:02:46;;;;;;;17.90;10.80;;;;;;;1.32;93.97;100597.88;5021091;28;20025;-78
2022/12/09 00:05:11;;;;;;;17.53;10.93;;;;;;;1.30;93.82;100588.44;5025012;28;20029;-78
2022/12/09 00:07:37;;;;;;;19.80;11.87;;;;;;;1.32;93.79;100591.88;5029822;28;20045;-78
2022/12/09 00:10:04;;;;;;;20.23;11.33;;;;;;;1.32;93.81;100597.00;5021076;28;20404;-78
2022/12/09 00:12:29;;;;;;;19.33;12.10;;;;;;;1.33;93.99;100596.16;5024768;28;20018;-78
2022/12/09 00:14:54;;;;;;;20.33;11.87;;;;;;;1.32;93.85;100594.44;5029776;28;20096;-78
2022/12/09 00:17:19;;;;;;;20.30;11.97;;;;;;;1.31;93.90;100593.59;5028350;28;20120;-78
2022/12/09 00:19:45;;;;;;;18.97;11.80;;;;;;;1.33;93.95;100591.91;5030459;28;20025;-78
2022/12/09 00:22:10;;;;;;;20.30;12.17;;;;;;;1.35;94.05;100587.66;5021869;28;20017;-78
2022/12/09 00:24:36;;;;;;;18.73;11.53;;;;;;;1.35;93.90;100592.78;5023747;28;20033;-78
2022/12/09 00:27:01;;;;;;;22.27;12.97;;;;;;;1.36;93.89;100589.38;5021851;28;20020;-78
2022/12/09 00:29:26;;;;;;;21.07;11.57;;;;;;;1.38;94.12;100583.38;5029806;28;20492;-78
2022/12/09 00:31:51;;;;;;;21.30;12.37;;;;;;;1.40;93.99;100584.25;5021313;28;20033;-78
2022/12/09 00:34:17;;;;;;;20.90;12.53;;;;;;;1.42;93.96;100588.56;5020937;28;20033;-78
2022/12/09 00:36:42;;;;;;;21.20;12.83;;;;;;;1.43;93.86;100591.97;5031024;28;20033;-78
2022/12/09 00:39:08;;;;;;;18.73;11.93;;;;;;;1.45;93.98;100583.44;5029482;28;20040;-78
2022/12/09 00:41:34;;;;;;;20.47;12.13;;;;;;;1.46;93.91;100590.28;5017594;28;20112;-78
2022/12/09 00:43:59;;;;;;;23.13;13.47;;;;;;;1.48;93.79;100595.44;5020005;28;20604;-78
2022/12/09 00:46:25;;;;;;;21.33;12.57;;;;;;;1.47;93.68;100596.28;5001817;28;20030;-78
2022/12/09 00:48:51;;;;;;;21.07;12.60;;;;;;;1.47;93.66;100586.88;5025352;28;20025;-78
2022/12/09 00:51:20;;;;;;;21.83;12.77;;;;;;;1.49;94.15;100587.75;5025340;28;20032;-78
2022/12/09 00:53:46;;;;;;;22.30;12.90;;;;;;;1.50;93.77;100581.75;5017252;28;20041;-78
2022/12/09 00:56:11;;;;;;;21.23;12.90;;;;;;;1.51;93.88;100592.91;5024941;28;20025;-78
2022/12/09 00:58:37;;;;;;;21.73;12.80;;;;;;;1.52;93.63;100581.78;5012849;28;20100;-78
2022/12/09 01:01:02;;;;;;;23.23;13.80;;;;;;;1.53;93.60;100586.06;5007161;28;20041;-78
2022/12/09 01:03:27;;;;;;;25.40;13.27;;;;;;;1.52;93.56;100581.78;5031918;28;20026;-78
2022/12/09 01:05:54;;;;;;;23.67;12.93;;;;;;;1.52;93.39;100581.78;5030036;28;20067;-78
2022/12/09 01:08:19;;;;;;;23.40;13.10;;;;;;;1.51;93.64;100578.34;5013745;28;20416;-78
2022/12/09 01:10:45;;;;;;;22.90;13.20;;;;;;;1.52;93.81;100584.34;5025039;28;20071;-78
2022/12/09 01:13:12;;;;;;;22.50;13.43;;;;;;;1.50;93.57;100580.91;5021126;28;20512;-78
2022/12/09 01:15:38;;;;;;;22.93;13.23;;;;;;;1.51;93.86;100583.47;5023582;28;20029;-78
2022/12/09 01:18:03;;;;;;;22.33;13.23;;;;;;;1.52;93.96;100585.19;5021341;28;20491;-78
2022/12/09 01:20:29;;;;;;;21.77;13.23;;;;;;;1.54;93.99;100585.19;5022435;28;20468;-78
2022/12/09 01:22:54;;;;;;;20.67;12.53;;;;;;;1.55;93.93;100589.47;5026217;28;20139;-78
2022/12/09 01:25:19;;;;;;;22.97;12.93;;;;;;;1.57;93.73;100586.94;5031912;28;20044;-78
2022/12/09 01:27:45;;;;;;;23.27;12.70;;;;;;;1.56;93.77;100588.63;5032320;28;20029;-78
2022/12/09 01:30:12;;;;;;;22.30;13.33;;;;;;;1.55;93.59;100589.47;5021988;28;20433;-78
2022/12/09 01:32:38;;;;;;;22.87;13.17;;;;;;;1.55;93.71;100592.03;5016650;28;20105;-78
2022/12/09 01:35:04;;;;;;;24.50;14.37;;;;;;;1.55;93.65;100599.75;5017021;28;20180;-78
2022/12/09 01:37:33;;;;;;;24.33;14.00;;;;;;;1.54;94.08;100598.03;5016243;28;20037;-78
2022/12/09 01:39:58;;;;;;;22.90;13.43;;;;;;;1.54;93.60;100592.88;5016392;28;20026;-78
2022/12/09 01:42:25;;;;;;;24.23;14.07;;;;;;;1.55;93.79;100591.19;5034796;28;20056;-78
2022/12/09 01:45:18;;;;;;;25.33;14.97;;;;;;;1.54;93.65;100592.88;5036084;28;20098;-78
2022/12/09 01:47:44;;;;;;;24.67;13.27;;;;;;;1.55;93.72;100597.19;5032977;28;20052;-78
2022/12/09 01:50:09;;;;;;;24.33;14.27;;;;;;;1.55;93.84;100597.19;5016646;28;20029;-78
2022/12/09 01:52:35;;;;;;;23.27;14.20;;;;;;;1.55;93.72;100593.78;5028473;28;20025;-78
2022/12/09 01:55:00;;;;;;;26.30;15.07;;;;;;;1.56;93.64;100600.63;5033333;28;20543;-78
2022/12/09 01:57:25;;;;;;;25.50;15.10;;;;;;;1.56;93.64;100596.31;5035841;28;20047;-78
2022/12/09 01:59:51;;;;;;;24.63;14.70;;;;;;;1.56;93.57;100600.63;5033645;28;20087;-78
2022/12/09 02:02:18;;;;;;;26.63;14.70;;;;;;;1.56;93.68;100598.06;5019446;28;20084;-78
2022/12/09 02:04:47;;;;;;;27.00;14.93;;;;;;;1.55;93.76;100589.47;5034150;28;20088;-78
2022/12/09 02:07:13;;;;;;;24.67;15.13;;;;;;;1.55;93.47;100597.19;5020972;28;20030;-78
2022/12/09 02:09:38;;;;;;;24.77;14.80;;;;;;;1.55;93.36;100594.63;5016918;28;20040;-78
2022/12/09 02:12:14;;;;;;;25.47;14.97;;;;;;;1.57;93.61;100594.63;5021668;28;20499;-78
2022/12/09 02:14:57;;;;;;;26.60;15.53;;;;;;;1.54;93.60;100592.88;5019502;28;20405;-78
2022/12/09 02:17:39;;;;;;;26.83;15.07;;;;;;;1.56;93.79;100593.75;5027258;28;20030;-78
2022/12/09 02:20:17;;;;;;;23.53;13.53;;;;;;;1.58;93.72;100597.19;5018822;28;20088;-78
2022/12/09 02:22:55;;;;;;;28.27;15.00;;;;;;;1.57;93.70;100592.06;5025668;28;20027;-78
2022/12/09 02:25:29;;;;;;;28.67;15.83;;;;;;;1.57;93.54;100592.91;5027129;28;20040;-78
2022/12/09 02:28:23;;;;;;;28.77;16.43;;;;;;;1.56;93.59;100586.06;5024489;28;20025;-78
2022/12/09 02:30:50;;;;;;;28.20;15.07;;;;;;;1.57;93.58;100592.91;5027745;28;20045;-78
2022/12/09 02:33:38;;;;;;;26.17;14.93;;;;;;;1.57;93.66;100589.50;5027888;28;20052;-78
2022/12/09 02:36:11;;;;;;;27.13;15.30;;;;;;;1.54;93.63;100597.19;5025837;28;20049;-78
2022/12/09 02:38:40;;;;;;;26.97;15.20;;;;;;;1.55;93.49;100589.47;5032630;28;20032;-78
2022/12/09 02:41:12;;;;;;;27.73;15.50;;;;;;;1.54;93.42;100586.91;5029149;28;20036;-78
2022/12/09 02:43:43;;;;;;;25.92;14.73;;;;;;;1.56;93.42;100601.47;5026733;28;20387;-78
2022/12/09 02:46:10;;;;;;;27.83;15.10;;;;;;;1.56;93.51;100593.75;5022744;28;20096;-78
2022/12/09 02:48:39;;;;;;;26.93;14.17;;;;;;;1.57;93.49;100592.91;5020139;28;20032;-78
2022/12/09 02:51:09;;;;;;;30.70;16.00;;;;;;;1.59;93.52;100590.38;5026087;28;20037;-78
2022/12/09 02:53:37;;;;;;;27.83;14.70;;;;;;;1.60;93.54;100582.69;5030929;28;20080;-78
2022/12/09 02:56:05;;;;;;;24.90;14.50;;;;;;;1.61;93.34;100588.69;5030596;28;20036;-78
2022/12/09 02:58:30;;;;;;;27.17;15.23;;;;;;;1.61;93.35;100589.53;5031841;28;20108;-78
2022/12/09 03:00:56;;;;;;;27.90;15.80;;;;;;;1.60;93.20;100579.28;5033394;28;20021;-78
2022/12/09 03:03:22;;;;;;;29.63;16.73;;;;;;;1.60;92.89;100577.56;5024516;28;20059;-78
2022/12/09 03:05:58;;;;;;;28.63;16.30;;;;;;;1.59;93.15;100580.97;5024939;28;20048;-78
2022/12/09 03:08:51;;;;;;;34.33;17.63;;;;;;;1.56;93.31;100575.81;5024407;28;20041;-78
2022/12/09 03:11:19;;;;;;;30.93;16.23;;;;;;;1.56;93.53;100580.94;5012355;28;20095;-78
2022/12/09 03:13:57;;;;;;;34.93;18.17;;;;;;;1.56;93.03;100580.94;5034278;28;20024;-78
2022/12/09 03:16:40;;;;;;;32.23;17.37;;;;;;;1.57;93.32;100581.81;5023382;28;20120;-78
2022/12/09 03:19:27;;;;;;;31.50;17.10;;;;;;;1.56;93.33;100580.94;5027368;28;20101;-78
2022/12/09 03:21:57;;;;;;;31.10;17.13;;;;;;;1.55;93.41;100576.66;5018345;28;20030;-78
2022/12/09 03:24:32;;;;;;;31.40;16.63;;;;;;;1.56;93.40;100570.69;5024760;28;20057;-78
2022/12/09 03:27:01;;;;;;;31.17;16.40;;;;;;;1.55;93.43;100571.53;5028824;28;20033;-78
2022/12/09 03:29:29;;;;;;;33.87;17.23;;;;;;;1.52;93.46;100563.84;5023177;28;20042;-78
2022/12/09 03:31:57;;;;;;;34.30;17.53;;;;;;;1.53;93.25;100560.44;5026281;28;20393;-78
2022/12/09 03:34:27;;;;;;;35.33;18.13;;;;;;;1.53;93.25;100557.88;5017287;28;20022;-78
2022/12/09 03:36:53;;;;;;;37.50;18.40;;;;;;;1.54;93.21;100557.00;5018332;28;20030;-78
2022/12/09 03:39:24;;;;;;;36.07;18.10;;;;;;;1.54;93.41;100562.13;5020166;28;20384;-78
2022/12/09 03:41:55;;;;;;;36.40;18.33;;;;;;;1.53;93.75;100560.44;5022040;28;20379;-78
2022/12/09 03:44:47;;;;;;;33.47;16.95;;;;;;;1.54;93.52;100564.69;5033197;28;20029;-78
2022/12/09 03:47:12;;;;;;;32.42;17.10;;;;;;;1.53;93.13;100557.88;5018147;28;20037;-78
2022/12/09 03:49:38;;;;;;;29.80;15.67;;;;;;;1.52;93.59;100558.72;5021802;28;20033;-78
2022/12/09 03:52:12;;;;;;;31.17;16.43;;;;;;;1.54;93.41;100556.16;5013620;28;20030;-78
2022/12/09 03:54:44;;;;;;;30.60;16.27;;;;;;;1.53;93.43;100555.31;5014016;28;20026;-78
2022/12/09 03:57:17;;;;;;;32.38;16.02;;;;;;;1.52;93.26;100559.56;5012706;28;20023;-78
2022/12/09 03:59:46;;;;;;;33.30;16.10;;;;;;;1.53;93.18;100557.88;5013674;28;20478;-78
2022/12/09 04:02:11;;;;;;;34.20;16.37;;;;;;;1.54;93.73;100557.00;5013740;28;20075;-78
2022/12/09 04:04:40;;;;;;;30.37;15.00;;;;;;;1.52;93.12;100553.59;5027291;28;20112;-78
2022/12/09 04:07:06;;;;;;;36.20;17.03;;;;;;;1.51;93.46;100557.84;5016632;28;20033;-78
2022/12/09 04:09:31;;;;;;;39.73;17.80;;;;;;;1.51;93.18;100555.28;5013546;28;20030;-78
2022/12/09 04:11:57;;;;;;;38.57;16.70;;;;;;;1.50;93.29;100550.16;5013542;28;20040;-78
2022/12/09 04:14:22;;;;;;;37.07;17.90;;;;;;;1.48;93.13;100551.84;5016307;28;20040;-78
2022/12/09 04:16:47;;;;;;;37.47;17.83;;;;;;;1.47;93.22;100553.53;5018108;28;20100;-78
2022/12/09 04:19:13;;;;;;;34.43;16.37;;;;;;;1.47;93.20;100550.97;5016711;28;20034;-78
2022/12/09 04:21:38;;;;;;;35.47;16.57;;;;;;;1.46;93.09;100553.53;5025628;28;20026;-78
2022/12/09 04:24:04;;;;;;;34.00;17.57;;;;;;;1.45;93.28;100549.25;5017566;28;20021;-78
2022/12/09 04:26:29;;;;;;;34.33;15.90;;;;;;;1.43;93.16;100548.38;5023891;28;20037;-78
2022/12/09 04:28:54;;;;;;;34.30;17.30;;;;;;;1.43;93.24;100553.50;5032086;28;20095;-78
2022/12/09 04:31:19;;;;;;;38.17;17.73;;;;;;;1.41;93.23;100550.94;5031492;28;20117;-78
2022/12/09 04:33:46;;;;;;;33.70;17.10;;;;;;;1.41;92.89;100544.94;5029823;28;20048;-78
2022/12/09 04:36:14;;;;;;;35.33;17.57;;;;;;;1.40;93.14;100546.66;5025265;28;20036;-78
2022/12/09 04:38:42;;;;;;;33.43;16.53;;;;;;;1.40;93.14;100543.22;5029623;28;20033;-78
2022/12/09 04:41:08;;;;;;;35.70;17.97;;;;;;;1.40;92.99;100540.66;5021450;28;20480;-78
2022/12/09 04:43:33;;;;;;;37.63;18.23;;;;;;;1.40;93.16;100549.22;5013247;28;20057;-78
2022/12/09 04:46:01;;;;;;;38.37;18.77;;;;;;;1.39;93.50;100546.63;5031293;28;20083;-78
2022/12/09 04:48:27;;;;;;;35.87;17.13;;;;;;;1.40;93.33;100545.78;5029983;28;20403;-78
2022/12/09 04:50:52;;;;;;;36.77;16.97;;;;;;;1.39;93.14;100541.50;5029150;28;20026;-78
2022/12/09 04:53:18;;;;;;;34.10;16.97;;;;;;;1.36;92.95;100543.22;5024942;28;20037;-78
2022/12/09 04:55:43;;;;;;;31.43;15.50;;;;;;;1.40;93.18;100548.34;5027891;28;20526;-78
2022/12/09 04:58:08;;;;;;;32.87;17.20;;;;;;;1.39;93.43;100546.63;5025912;28;20112;-78
2022/12/09 05:00:34;;;;;;;33.20;15.80;;;;;;;1.39;93.16;100546.63;5029153;28;20037;-78
2022/12/09 05:02:59;;;;;;;37.10;16.93;;;;;;;1.39;93.01;100542.38;5019784;28;20026;-78
2022/12/09 05:05:24;;;;;;;31.67;16.23;;;;;;;1.39;93.16;100546.63;5028452;28;20507;-78
2022/12/09 05:07:49;;;;;;;33.47;16.97;;;;;;;1.39;92.86;100546.63;5036311;28;20030;-78
2022/12/09 05:10:15;;;;;;;33.07;17.03;;;;;;;1.38;93.04;100544.91;5038527;28;20036;-78
2022/12/09 05:12:40;;;;;;;35.30;17.80;;;;;;;1.35;92.77;100546.66;5027237;28;20477;-78
2022/12/09 05:15:06;;;;;;;38.63;17.03;;;;;;;1.35;92.92;100541.50;5026067;28;20379;-78
2022/12/09 05:17:31;;;;;;;33.50;16.13;;;;;;;1.35;93.14;100546.66;5036006;28;20021;-78
2022/12/09 05:19:56;;;;;;;33.80;15.93;;;;;;;1.36;93.05;100540.69;5048399;28;20102;-78
2022/12/09 05:22:22;;;;;;;33.57;17.30;;;;;;;1.36;92.80;100542.34;5027774;28;20338;-78
2022/12/09 05:24:47;;;;;;;37.27;18.37;;;;;;;1.35;92.88;100541.50;5016737;28;20022;-78
2022/12/09 05:27:13;;;;;;;34.17;16.43;;;;;;;1.34;92.82;100538.94;5026447;28;20103;-78
2022/12/09 05:29:39;;;;;;;31.67;15.90;;;;;;;1.35;92.66;100540.63;5034462;28;20041;-78
2022/12/09 05:32:05;;;;;;;34.60;16.50;;;;;;;1.32;92.96;100536.38;5029091;28;20045;-77
2022/12/09 05:34:30;;;;;;;33.67;15.87;;;;;;;1.33;92.92;100535.53;5038816;28;20020;-77
2022/12/09 05:36:55;;;;;;;33.27;15.93;;;;;;;1.33;93.14;100538.09;5056224;28;20459;-78
2022/12/09 05:39:21;;;;;;;35.53;16.80;;;;;;;1.32;92.94;100535.50;5044800;28;20047;-77
2022/12/09 05:41:46;;;;;;;34.97;16.90;;;;;;;1.30;92.93;100532.94;5034724;28;20025;-79
2022/12/09 05:44:12;;;;;;;33.57;16.30;;;;;;;1.26;92.69;100532.91;5031070;28;20033;-78
2022/12/09 05:46:38;;;;;;;35.80;16.20;;;;;;;1.20;92.24;100534.56;5033244;28;20025;-77
2022/12/09 05:49:03;;;;;;;33.97;16.63;;;;;;;1.13;92.14;100537.91;5026597;28;20056;-78
2022/12/09 05:51:30;;;;;;;35.73;16.93;;;;;;;1.04;92.14;100545.53;5028676;28;20100;-78
2022/12/09 05:53:58;;;;;;;32.77;16.40;;;;;;;0.96;92.20;100537.78;5030504;28;20482;-77
2022/12/09 05:56:24;;;;;;;32.57;15.53;;;;;;;0.94;92.22;100536.91;5035950;28;20033;-78
2022/12/09 05:58:50;;;;;;;35.67;16.77;;;;;;;0.95;92.33;100541.19;5034483;28;20025;-78
2022/12/09 06:01:16;;;;;;;34.93;16.87;;;;;;;0.95;92.37;100546.31;5027057;28;20105;-78
2022/12/09 06:03:41;;;;;;;39.03;18.00;;;;;;;0.95;92.72;100543.75;5029270;28;20508;-78
2022/12/09 06:06:09;;;;;;;37.27;16.90;;;;;;;0.97;92.84;100543.75;5030305;28;20347;-78
2022/12/09 06:08:35;;;;;;;39.27;17.97;;;;;;;0.99;93.07;100542.94;5031178;28;20025;-78
2022/12/09 06:11:00;;;;;;;37.23;17.10;;;;;;;0.99;92.71;100542.94;5033217;28;20535;-78
2022/12/09 06:13:26;;;;;;;37.13;17.40;;;;;;;1.00;92.83;100543.78;5029612;28;20022;-78
2022/12/09 06:15:51;;;;;;;36.33;17.07;;;;;;;1.00;92.77;100548.91;5030445;28;20032;-78
2022/12/09 06:18:17;;;;;;;34.93;16.27;;;;;;;0.99;92.74;100548.06;5035311;28;20465;-78
2022/12/09 06:20:42;;;;;;;34.40;15.57;;;;;;;0.97;92.71;100543.75;5034966;28;20083;-77
2022/12/09 06:23:07;;;;;;;33.67;15.73;;;;;;;0.96;92.79;100540.34;5029834;28;20412;-78
2022/12/09 06:25:33;;;;;;;33.37;15.60;;;;;;;0.98;92.59;100540.34;5034469;28;20025;-78
2022/12/09 06:27:58;;;;;;;34.77;16.20;;;;;;;0.99;92.70;100544.63;5031813;28;20033;-77
2022/12/09 06:30:23;;;;;;;34.67;16.10;;;;;;;0.97;92.50;100543.75;5032504;28;20033;-77
2022/12/09 06:32:48;;;;;;;31.17;14.77;;;;;;;0.99;92.97;100539.50;5031119;28;20022;-77
2022/12/09 06:35:14;;;;;;;31.53;15.20;;;;;;;0.99;92.63;100553.19;5034661;28;20017;-77
2022/12/09 06:37:39;;;;;;;33.30;16.13;;;;;;;1.00;92.88;100544.66;5029625;28;20025;-77
2022/12/09 06:40:05;;;;;;;33.77;15.97;;;;;;;1.03;92.83;100549.78;5030220;28;20477;-77
2022/12/09 06:42:30;;;;;;;30.47;15.10;;;;;;;1.05;92.45;100549.81;5032551;28;20071;-77
2022/12/09 06:44:55;;;;;;;32.13;15.97;;;;;;;1.03;92.58;100544.66;5026031;28;20026;-77
2022/12/09 06:47:21;;;;;;;30.40;15.70;;;;;;;1.03;92.70;100547.22;5031704;28;20029;-77
2022/12/09 06:49:46;;;;;;;31.30;15.70;;;;;;;1.04;92.33;100545.53;5030356;28;20469;-77
2022/12/09 06:52:11;;;;;;;32.80;15.87;;;;;;;1.04;92.34;100542.97;5008648;28;20037;-77
2022/12/09 06:54:36;;;;;;;30.20;14.93;;;;;;;1.04;92.40;100542.97;5032110;28;20164;-77
2022/12/09 06:57:02;;;;;;;30.73;15.50;;;;;;;1.03;92.51;100543.81;5032506;28;20063;-77
2022/12/09 06:59:27;;;;;;;33.73;16.03;;;;;;;1.03;92.43;100547.22;5032588;28;20484;-77
2022/12/09 07:01:52;;;;;;;31.80;16.13;;;;;;;1.03;92.46;100548.94;5027990;28;20029;-77
2022/12/09 07:04:18;;;;;;;34.80;15.97;;;;;;;1.01;92.24;100548.06;5023921;28;20147;-77
2022/12/09 07:06:44;;;;;;;30.63;15.43;;;;;;;1.00;91.98;100546.34;5032217;28;20036;-77
2022/12/09 07:09:15;;;;;;;31.20;15.07;;;;;;;0.99;92.49;100548.06;5034147;28;20438;-77
2022/12/09 07:11:41;;;;;;;30.97;14.70;;;;;;;0.98;92.12;100543.78;5023049;28;20038;-77
2022/12/09 07:14:07;;;;;;;27.83;14.10;;;;;;;0.97;92.12;100548.88;5022354;28;20040;-77
2022/12/09 07:16:33;;;;;;;28.53;14.90;;;;;;;0.97;92.30;100549.75;5033446;28;20030;-77
2022/12/09 07:18:59;;;;;;;30.53;15.57;;;;;;;0.95;91.99;100548.00;5023156;28;20038;-77
2022/12/09 07:21:24;;;;;;;31.63;15.23;;;;;;;0.94;92.23;100552.28;5015344;28;20537;-77
2022/12/09 07:23:50;;;;;;;32.43;15.53;;;;;;;0.89;91.89;100557.34;5020723;28;20026;-77
2022/12/09 07:26:16;;;;;;;33.13;16.37;;;;;;;0.85;91.81;100559.88;5030196;28;20117;-77
2022/12/09 07:28:42;;;;;;;31.40;15.33;;;;;;;0.83;91.87;100556.44;5033558;28;20404;-77
2022/12/09 07:31:22;;;;;;;33.60;16.57;;;;;;;0.75;91.66;100562.34;5031108;28;20021;-77
2022/12/09 07:33:48;;;;;;;30.77;16.00;;;;;;;0.70;91.42;100570.81;5022159;28;20033;-77
2022/12/09 07:36:13;;;;;;;30.53;14.93;;;;;;;0.68;91.65;100564.81;5018042;28;20026;-77
2022/12/09 07:38:39;;;;;;;30.53;15.93;;;;;;;0.66;91.90;100561.38;5016580;28;21527;-77
2022/12/09 07:41:06;;;;;;;29.07;14.50;;;;;;;0.69;91.81;100574.22;5026971;28;20131;-77
2022/12/09 07:43:35;;;;;;;32.23;16.23;;;;;;;0.68;92.06;100577.63;5027416;28;20030;-77
2022/12/09 07:46:05;;;;;;;27.73;14.43;;;;;;;0.68;92.00;100575.06;5022977;28;20087;-77
2022/12/09 07:48:30;;;;;;;31.57;16.33;;;;;;;0.66;92.25;100575.06;5023515;28;20076;-77
2022/12/09 07:50:59;;;;;;;30.97;15.80;;;;;;;0.65;91.83;100580.16;5025160;28;20431;-77
2022/12/09 07:53:24;;;;;;;30.63;14.60;;;;;;;0.65;91.86;100583.56;5017892;28;20038;-77
2022/12/09 07:55:50;;;;;;;32.97;16.07;;;;;;;0.65;92.11;100582.69;5031741;28;20033;-77
2022/12/09 07:58:15;;;;;;;30.47;14.70;;;;;;;0.65;91.82;100588.69;5029575;28;20033;-77
2022/12/09 08:00:40;;;;;;;31.20;15.23;;;;;;;0.65;91.91;100582.69;5022974;28;20033;-77
2022/12/09 08:03:06;;;;;;;31.17;14.53;;;;;;;0.67;91.71;100586.13;5024127;28;20029;-77
2022/12/09 08:05:31;;;;;;;32.57;14.97;;;;;;;0.65;92.01;100578.47;5029894;28;20029;-77
2022/12/09 08:07:56;;;;;;;29.47;14.47;;;;;;;0.66;91.69;100582.75;5027434;28;20037;-77
2022/12/09 08:10:21;;;;;;;28.03;14.50;;;;;;;0.68;92.28;100588.75;5019058;28;20103;-77
2022/12/09 08:12:47;;;;;;;33.67;15.83;;;;;;;0.69;92.23;100584.47;5027790;28;20033;-77
2022/12/09 08:15:12;;;;;;;33.70;16.50;;;;;;;0.67;91.98;100587.03;5033218;28;20430;-77
2022/12/09 08:17:37;;;;;;;34.83;15.97;;;;;;;0.67;91.83;100592.13;5032381;28;20045;-77
2022/12/09 08:20:03;;;;;;;30.57;15.07;;;;;;;0.69;91.73;100587.88;5025161;28;20109;-77
2022/12/09 08:22:28;;;;;;;31.63;15.30;;;;;;;0.71;92.18;100582.78;5028813;28;20033;-77
2022/12/09 08:24:54;;;;;;;33.33;17.17;;;;;;;0.69;91.78;100584.47;5032182;28;20108;-77
2022/12/09 08:27:19;;;;;;;34.67;16.60;;;;;;;0.67;91.89;100586.13;5031773;28;20028;-77
2022/12/09 08:29:44;;;;;;;34.57;16.67;;;;;;;0.63;91.66;100594.63;5031934;28;20050;-77
2022/12/09 08:32:09;;;;;;;36.00;17.57;;;;;;;0.62;91.67;100583.53;5030510;28;20055;-77
2022/12/09 08:34:35;;;;;;;35.20;16.43;;;;;;;0.60;91.79;100585.22;5030881;28;20083;-77
2022/12/09 08:37:00;;;;;;;35.87;16.77;;;;;;;0.59;91.99;100584.38;5031427;28;20091;-77
2022/12/09 08:39:25;;;;;;;33.13;15.57;;;;;;;0.60;91.83;100585.22;5029856;28;20481;-77
2022/12/09 08:41:50;;;;;;;33.97;16.30;;;;;;;0.63;92.09;100595.50;5032133;28;20095;-77
2022/12/09 08:44:18;;;;;;;32.10;15.90;;;;;;;0.66;92.06;100577.63;5031343;28;20027;-77
2022/12/09 08:46:46;;;;;;;31.37;15.33;;;;;;;0.68;92.04;100578.50;5030112;28;20351;-78
2022/12/09 08:49:16;;;;;;;31.43;14.87;;;;;;;0.71;92.17;100575.09;5028823;28;20469;-77
2022/12/09 08:51:42;;;;;;;33.67;15.73;;;;;;;0.74;92.03;100582.81;5013400;28;20037;-77
2022/12/09 08:54:07;;;;;;;32.23;15.77;;;;;;;0.75;92.01;100575.13;5031795;28;20040;-77
2022/12/09 08:56:33;;;;;;;33.87;16.37;;;;;;;0.76;91.62;100576.00;5017087;28;20444;-77
2022/12/09 08:58:58;;;;;;;39.27;18.77;;;;;;;0.78;91.71;100581.13;5031666;28;20037;-77
2022/12/09 09:01:31;;;;;;;40.00;18.03;;;;;;;0.79;91.76;100580.28;5027378;28;20034;-77
2022/12/09 09:03:56;;;;;;;38.97;17.97;;;;;;;0.81;91.62;100579.47;5028292;28;20029;-77
2022/12/09 09:06:22;;;;;;;37.07;17.10;;;;;;;0.80;91.89;100582.00;5019096;28;20033;-77
2022/12/09 09:08:47;;;;;;;34.43;16.47;;;;;;;0.83;91.79;100587.19;5015070;28;20034;-77
2022/12/09 09:11:18;;;;;;;34.57;17.00;;;;;;;0.83;91.60;100594.84;5020329;28;20037;-77
2022/12/09 09:13:46;;;;;;;36.70;17.77;;;;;;;0.83;91.50;100592.28;5029628;28;20072;-77
2022/12/09 09:16:14;;;;;;;37.00;17.27;;;;;;;0.83;92.02;100603.38;5032439;28;20599;-77
2022/12/09 09:18:40;;;;;;;37.03;17.43;;;;;;;0.84;91.71;100599.97;5027423;28;20021;-77
2022/12/09 09:21:07;;;;;;;33.57;16.33;;;;;;;0.84;91.64;100605.09;5028894;28;20492;-77
2022/12/09 09:23:33;;;;;;;33.57;16.83;;;;;;;0.81;91.53;100599.09;5023490;28;20384;-77
2022/12/09 09:25:58;;;;;;;34.33;16.17;;;;;;;0.81;91.59;100596.53;5024767;28;20025;-77
2022/12/09 09:28:24;;;;;;;34.77;16.67;;;;;;;0.83;91.43;100602.53;5031144;28;20400;-77
2022/12/09 09:30:57;;;;;;;35.13;16.13;;;;;;;0.83;91.66;100605.09;5031503;28;20025;-77
2022/12/09 09:33:22;;;;;;;36.70;16.13;;;;;;;0.83;91.43;100603.38;5032450;28;20037;-77
2022/12/09 09:35:54;;;;;;;35.30;16.27;;;;;;;0.87;91.40;100607.69;5032061;28;20025;-77
2022/12/09 09:38:19;;;;;;;35.22;15.45;;;;;;;0.88;91.87;100611.09;5031217;28;20030;-77
2022/12/09 09:40:44;;;;;;;38.20;16.77;;;;;;;0.91;91.49;100606.03;5032327;28;20029;-77
2022/12/09 09:43:15;;;;;;;37.43;16.53;;;;;;;0.94;91.44;100611.19;5032327;28;20092;-77
2022/12/09 09:45:41;;;;;;;35.78;15.35;;;;;;;0.98;91.60;100607.81;5031341;28;20144;-77
2022/12/09 09:48:13;;;;;;;38.80;17.23;;;;;;;1.02;91.67;100611.25;5031329;28;20021;-77
2022/12/09 09:50:46;;;;;;;38.20;17.25;;;;;;;1.05;91.60;100604.44;5034776;28;20470;-77
2022/12/09 09:53:20;;;;;;;34.67;16.03;;;;;;;1.06;91.58;100595.91;5026746;28;20109;-77
2022/12/09 09:55:54;;;;;;;42.53;18.57;;;;;;;1.08;91.67;100603.63;5027502;28;20036;-77
2022/12/09 09:58:31;;;;;;;39.07;16.97;;;;;;;1.08;91.04;100597.66;5032242;28;20017;-77
2022/12/09 10:01:05;;;;;;;37.27;16.07;;;;;;;1.12;91.02;100599.41;5030110;28;20536;-77
2022/12/09 10:03:41;;;;;;;38.20;16.93;;;;;;;1.19;91.22;100593.50;5027789;28;20551;-77
2022/12/09 10:06:17;;;;;;;35.67;16.23;;;;;;;1.20;90.84;100597.75;5025502;28;20029;-77
2022/12/09 10:09:04;;;;;;;29.83;14.80;;;;;;;1.20;90.62;100602.88;5029658;28;20031;-77
2022/12/09 10:12:13;;;;;;;35.10;16.17;;;;;;;1.21;90.77;100594.34;5029360;28;20040;-77
2022/12/09 10:14:54;;;;;;;34.57;15.07;;;;;;;1.21;90.63;100599.47;5024791;28;20100;-77
2022/12/09 10:17:22;;;;;;;32.77;15.27;;;;;;;1.20;90.90;100588.38;5028902;28;20465;-77
2022/12/09 10:19:51;;;;;;;35.17;16.03;;;;;;;1.22;90.54;100590.94;5029493;28;20490;-77
2022/12/09 10:22:20;;;;;;;36.13;16.27;;;;;;;1.24;90.56;100591.81;5028313;28;20037;-77
2022/12/09 10:24:48;;;;;;;37.37;17.50;;;;;;;1.23;90.55;100602.91;5026792;28;20034;-77
2022/12/09 10:27:36;;;;;;;34.33;16.10;;;;;;;1.27;90.59;100604.66;5027201;28;20021;-77
2022/12/09 10:30:13;;;;;;;34.00;15.03;;;;;;;1.30;90.50;100597.00;5029170;28;21209;-77
2022/12/09 10:32:39;;;;;;;34.93;16.43;;;;;;;1.32;90.39;100597.88;5028393;28;20112;-77
2022/12/09 10:35:14;;;;;;;34.20;16.00;;;;;;;1.34;89.98;100601.31;5027395;28;20167;-77
2022/12/09 10:37:39;;;;;;;32.43;15.57;;;;;;;1.37;89.44;100600.47;5025719;28;20390;-77
2022/12/09 10:40:10;;;;;;;33.40;15.23;;;;;;;1.38;88.90;100602.19;5028112;28;20025;-76
2022/12/09 10:46:07;;;;;;;32.10;14.47;;;;;;;1.41;89.66;100596.22;4996794;28;20076;-76
2022/12/09 10:48:51;;;;;;;33.30;14.07;;;;;;;1.40;89.43;100592.81;4992992;28;20142;-77
2022/12/09 10:51:31;;;;;;;28.50;12.87;;;;;;;1.41;89.50;100596.22;5015290;28;20181;-77
2022/12/09 10:54:04;;;;;;;33.20;14.63;;;;;;;1.42;89.21;100592.81;5027739;28;20488;-77
2022/12/09 10:56:35;;;;;;;33.13;14.67;;;;;;;1.39;89.32;100592.78;5027172;28;20068;-77
2022/12/09 10:59:35;;;;;;;34.60;14.43;;;;;;;1.43;89.72;100589.41;5026266;28;20021;-77
2022/12/09 11:02:18;;;;;;;37.10;16.50;;;;;;;1.41;89.31;100593.66;4966809;28;20070;-76
2022/12/09 11:04:44;;;;;;;34.47;14.97;;;;;;;1.40;89.57;100591.94;5020786;28;20076;-77
2022/12/09 11:07:22;;;;;;;35.80;15.30;;;;;;;1.39;89.25;100588.53;5026549;28;20025;-77
2022/12/09 11:09:50;;;;;;;32.60;13.73;;;;;;;1.38;89.04;100583.38;5029017;28;20365;-77
2022/12/09 11:12:30;;;;;;;37.50;15.47;;;;;;;1.38;88.50;100585.94;5028507;28;20037;-76
2022/12/09 11:15:04;;;;;;;32.70;14.90;;;;;;;1.39;89.15;100585.09;5027928;28;20589;-77
2022/12/09 11:17:33;;;;;;;37.63;16.60;;;;;;;1.40;89.36;100585.13;5026173;28;20037;-76
2022/12/09 11:20:04;;;;;;;37.00;15.77;;;;;;;1.38;89.10;100584.25;5028680;28;20040;-76
2022/12/09 11:22:38;;;;;;;36.13;15.55;;;;;;;1.39;89.21;100587.66;5024728;28;20018;-77
2022/12/09 11:25:09;;;;;;;33.07;15.00;;;;;;;1.41;89.07;100585.97;5026800;28;20040;-77